createdAt,value
2017-02-01T00:00:01.836Z,0
2017-02-01T00:01:02.210Z,0
2017-02-01T00:02:02.184Z,0
2017-02-01T00:03:02.160Z,0
2017-02-01T00:04:01.742Z,0
2017-02-01T00:05:01.331Z,0
2017-02-01T00:06:02.095Z,0
2017-02-01T00:07:02.271Z,0
2017-02-01T00:08:02.071Z,0
2017-02-01T00:09:02.023Z,0
2017-02-01T00:10:02.004Z,0
2017-02-01T00:11:01.588Z,0
2017-02-01T00:12:01.961Z,0
2017-02-01T00:13:01.540Z,0
2017-02-01T00:14:01.917Z,0
2017-02-01T00:15:01.886Z,0
2017-02-01T00:16:01.867Z,0
2017-02-01T00:17:01.849Z,0
2017-02-01T00:18:01.829Z,0
2017-02-01T00:19:01.809Z,0
2017-02-01T00:20:01.781Z,0
2017-02-01T00:21:01.758Z,0
2017-02-01T00:22:01.340Z,0
2017-02-01T00:23:01.709Z,0
2017-02-01T00:24:01.693Z,0
2017-02-01T00:25:01.684Z,0
2017-02-01T00:26:01.651Z,0
2017-02-01T00:27:01.627Z,0
2017-02-01T00:28:01.615Z,0
2017-02-01T00:29:01.591Z,0
2017-02-01T00:30:01.193Z,0
2017-02-01T00:31:01.542Z,0
2017-02-01T00:32:01.518Z,0
2017-02-01T00:33:01.494Z,0
2017-02-01T00:34:01.474Z,0
2017-02-01T00:35:01.459Z,0
2017-02-01T00:36:01.038Z,0
2017-02-01T00:37:01.417Z,0
2017-02-01T00:38:01.016Z,0
2017-02-01T00:39:01.369Z,0
2017-02-01T00:40:01.348Z,0
2017-02-01T00:41:01.324Z,0
2017-02-01T00:42:01.304Z,0
2017-02-01T00:43:01.282Z,0
2017-02-01T00:44:01.260Z,0
2017-02-01T00:45:00.872Z,0
2017-02-01T00:46:01.219Z,0
2017-02-01T00:47:01.202Z,0
2017-02-01T00:48:01.172Z,0
2017-02-01T00:49:01.148Z,0
2017-02-01T00:50:01.124Z,0
2017-02-01T00:51:01.109Z,0
2017-02-01T00:52:01.084Z,0
2017-02-01T00:53:00.673Z,0
2017-02-01T00:54:01.052Z,0
2017-02-01T00:55:01.029Z,0
2017-02-01T00:56:00.998Z,0
2017-02-01T00:57:00.979Z,0
2017-02-01T00:58:00.957Z,0
2017-02-01T00:59:00.961Z,0
2017-02-01T01:00:00.921Z,0
2017-02-01T01:01:00.899Z,0
2017-02-01T01:02:00.474Z,0
2017-02-01T01:03:00.854Z,0
2017-02-01T01:04:00.828Z,0
2017-02-01T01:05:00.812Z,0
2017-02-01T01:06:00.785Z,0
2017-02-01T01:07:00.764Z,0
2017-02-01T01:08:00.739Z,0
2017-02-01T01:09:00.740Z,0
2017-02-01T01:10:00.312Z,0
2017-02-01T01:11:00.689Z,0
2017-02-01T01:12:00.654Z,0
2017-02-01T01:13:00.639Z,0
2017-02-01T01:14:00.614Z,0
2017-02-01T01:15:00.205Z,0
2017-02-01T01:16:00.169Z,0
2017-02-01T01:17:00.549Z,0
2017-02-01T01:18:00.530Z,0
2017-02-01T01:19:00.512Z,0
2017-02-01T01:20:00.485Z,0
2017-02-01T01:21:00.458Z,0
2017-02-01T01:22:00.438Z,0
2017-02-01T01:23:00.416Z,0
2017-02-01T01:24:00.406Z,0
2017-02-01T01:25:00.375Z,0
2017-02-01T01:26:00.359Z,0
2017-02-01T01:27:00.331Z,0
2017-02-01T01:28:00.316Z,0
2017-02-01T01:29:00.297Z,0
2017-02-01T01:30:00.267Z,0
2017-02-01T01:31:00.251Z,0
2017-02-01T01:32:00.225Z,0
2017-02-01T01:33:00.199Z,0
2017-02-01T01:34:00.183Z,0
2017-02-01T01:35:00.165Z,0
2017-02-01T01:36:00.145Z,0
2017-02-01T01:37:00.121Z,0
2017-02-01T01:38:00.102Z,0
2017-02-01T01:39:00.075Z,0
2017-02-01T01:40:00.056Z,0
2017-02-01T01:41:00.042Z,0
2017-02-01T01:41:59.618Z,0
2017-02-01T01:42:59.987Z,0
2017-02-01T01:43:59.966Z,0
2017-02-01T01:44:59.591Z,0
2017-02-01T01:45:59.934Z,0
2017-02-01T01:46:59.908Z,0
2017-02-01T01:47:59.881Z,0
2017-02-01T01:48:59.866Z,0
2017-02-01T01:49:59.838Z,0
2017-02-01T01:50:59.427Z,0
2017-02-01T01:51:59.824Z,0
2017-02-01T01:52:59.389Z,0
2017-02-01T01:53:59.760Z,0
2017-02-01T01:54:59.735Z,0
2017-02-01T01:55:59.713Z,0
2017-02-01T01:56:59.691Z,0
2017-02-01T01:57:59.669Z,0
2017-02-01T01:58:59.653Z,0
2017-02-01T01:59:59.634Z,0
2017-02-01T02:00:59.604Z,0
2017-02-01T02:01:59.595Z,0
2017-02-01T02:02:59.567Z,0
2017-02-01T02:03:59.560Z,0
2017-02-01T02:04:59.521Z,0
2017-02-01T02:05:59.110Z,0
2017-02-01T02:06:59.680Z,0
2017-02-01T02:07:59.456Z,0
2017-02-01T02:08:59.436Z,0
2017-02-01T02:09:59.418Z,0
2017-02-01T02:10:59.009Z,0
2017-02-01T02:11:59.375Z,0
2017-02-01T02:12:59.361Z,0
2017-02-01T02:13:59.328Z,0
2017-02-01T02:14:59.310Z,0
2017-02-01T02:15:59.325Z,0
2017-02-01T02:16:59.294Z,0
2017-02-01T02:17:59.241Z,0
2017-02-01T02:18:59.234Z,0
2017-02-01T02:19:59.203Z,0
2017-02-01T02:20:59.185Z,0
2017-02-01T02:21:59.164Z,0
2017-02-01T02:22:59.173Z,0
2017-02-01T02:23:58.728Z,0
2017-02-01T02:24:59.098Z,0
2017-02-01T02:25:59.091Z,0
2017-02-01T02:26:59.053Z,0
2017-02-01T02:27:59.041Z,0
2017-02-01T02:28:59.011Z,0
2017-02-01T02:29:58.994Z,0
2017-02-01T02:30:58.969Z,0
2017-02-01T02:31:58.956Z,0
2017-02-01T02:32:58.540Z,0
2017-02-01T02:33:58.515Z,0
2017-02-01T02:34:58.883Z,0
2017-02-01T02:35:58.876Z,0
2017-02-01T02:36:58.840Z,0
2017-02-01T02:37:58.819Z,0
2017-02-01T02:38:58.403Z,0
2017-02-01T02:39:58.779Z,0
2017-02-01T02:40:58.362Z,0
2017-02-01T02:41:58.733Z,0
2017-02-01T02:42:58.716Z,0
2017-02-01T02:43:58.698Z,0
2017-02-01T02:44:58.701Z,0
2017-02-01T02:45:58.647Z,0
2017-02-01T02:46:58.626Z,0
2017-02-01T02:47:57.821Z,0
2017-02-01T02:48:58.193Z,0
2017-02-01T02:49:58.578Z,0
2017-02-01T02:50:58.156Z,0
2017-02-01T02:51:58.529Z,0
2017-02-01T02:52:58.504Z,0
2017-02-01T02:53:58.484Z,0
2017-02-01T02:54:58.464Z,0
2017-02-01T02:55:58.048Z,0
2017-02-01T02:56:58.420Z,0
2017-02-01T02:57:58.398Z,0
2017-02-01T02:58:58.378Z,0
2017-02-01T02:59:58.357Z,0
2017-02-01T03:00:57.934Z,0
2017-02-01T03:01:58.324Z,0
2017-02-01T03:02:58.288Z,0
2017-02-01T03:03:58.278Z,0
2017-02-01T03:04:58.251Z,0
2017-02-01T03:05:58.232Z,0
2017-02-01T03:06:57.421Z,0
2017-02-01T03:07:58.212Z,0
2017-02-01T03:08:58.160Z,0
2017-02-01T03:09:58.140Z,0
2017-02-01T03:10:58.116Z,0
2017-02-01T03:11:57.710Z,0
2017-02-01T03:12:58.086Z,0
2017-02-01T03:13:57.692Z,0
2017-02-01T03:14:58.057Z,0
2017-02-01T03:15:58.014Z,0
2017-02-01T03:16:57.996Z,0
2017-02-01T03:17:57.980Z,0
2017-02-01T03:18:57.959Z,0
2017-02-01T03:19:57.538Z,0
2017-02-01T03:20:57.526Z,0
2017-02-01T03:21:57.496Z,0
2017-02-01T03:22:57.867Z,0
2017-02-01T03:23:57.451Z,0
2017-02-01T03:24:57.825Z,0
2017-02-01T03:25:57.817Z,0
2017-02-01T03:26:57.791Z,0
2017-02-01T03:27:57.766Z,0
2017-02-01T03:28:57.746Z,0
2017-02-01T03:29:57.722Z,0
2017-02-01T03:30:57.310Z,0
2017-02-01T03:31:57.286Z,0
2017-02-01T03:32:57.662Z,0
2017-02-01T03:33:57.244Z,0
2017-02-01T03:34:57.618Z,0
2017-02-01T03:35:57.210Z,0
2017-02-01T03:36:57.589Z,0
2017-02-01T03:37:57.553Z,0
2017-02-01T03:38:57.530Z,0
2017-02-01T03:39:57.513Z,0
2017-02-01T03:40:57.493Z,0
2017-02-01T03:41:57.468Z,0
2017-02-01T03:42:57.456Z,0
2017-02-01T03:43:57.445Z,0
2017-02-01T03:44:57.417Z,0
2017-02-01T03:45:57.382Z,0
2017-02-01T03:46:56.983Z,0
2017-02-01T03:47:57.355Z,0
2017-02-01T03:48:57.327Z,0
2017-02-01T03:49:57.307Z,0
2017-02-01T03:50:57.302Z,0
2017-02-01T03:51:57.265Z,0
2017-02-01T03:52:57.238Z,0
2017-02-01T03:53:57.217Z,0
2017-02-01T03:54:57.208Z,0
2017-02-01T03:55:57.181Z,0
2017-02-01T03:56:56.760Z,0
2017-02-01T03:57:56.732Z,0
2017-02-01T03:58:57.107Z,0
2017-02-01T03:59:56.696Z,0
2017-02-01T04:00:57.074Z,0
2017-02-01T04:01:56.648Z,0
2017-02-01T04:02:57.043Z,0
2017-02-01T04:03:57.004Z,0
2017-02-01T04:04:56.985Z,0
2017-02-01T04:05:56.973Z,0
2017-02-01T04:06:57.419Z,0
2017-02-01T04:07:56.929Z,0
2017-02-01T04:08:56.902Z,0
2017-02-01T04:09:56.487Z,0
2017-02-01T04:10:56.465Z,0
2017-02-01T04:11:56.837Z,0
2017-02-01T04:12:56.854Z,0
2017-02-01T04:13:56.010Z,0
2017-02-01T04:14:56.798Z,0
2017-02-01T04:15:56.360Z,0
2017-02-01T04:16:56.732Z,0
2017-02-01T04:17:56.716Z,0
2017-02-01T04:18:56.727Z,0
2017-02-01T04:19:56.674Z,0
2017-02-01T04:20:56.672Z,0
2017-02-01T04:21:56.659Z,0
2017-02-01T04:22:56.629Z,0
2017-02-01T04:23:56.597Z,0
2017-02-01T04:24:56.574Z,0
2017-02-01T04:25:56.557Z,0
2017-02-01T04:26:56.535Z,0
2017-02-01T04:27:56.508Z,0
2017-02-01T04:28:56.501Z,0
2017-02-01T04:29:56.472Z,0
2017-02-01T04:30:56.451Z,0
2017-02-01T04:31:56.025Z,0
2017-02-01T04:32:56.010Z,0
2017-02-01T04:33:55.988Z,0
2017-02-01T04:34:56.355Z,0
2017-02-01T04:35:56.337Z,0
2017-02-01T04:36:56.323Z,0
2017-02-01T04:37:56.303Z,0
2017-02-01T04:38:56.276Z,0
2017-02-01T04:39:56.258Z,0
2017-02-01T04:40:56.241Z,0
2017-02-01T04:41:56.209Z,0
2017-02-01T04:42:56.198Z,0
2017-02-01T04:43:55.785Z,0
2017-02-01T04:44:55.761Z,0
2017-02-01T04:45:55.751Z,0
2017-02-01T04:46:56.119Z,0
2017-02-01T04:47:56.098Z,0
2017-02-01T04:48:56.075Z,0
2017-02-01T04:49:56.043Z,0
2017-02-01T04:50:55.634Z,0
2017-02-01T04:51:56.010Z,0
2017-02-01T04:52:56.018Z,0
2017-02-01T04:53:55.967Z,0
2017-02-01T04:54:55.947Z,0
2017-02-01T04:55:55.919Z,0
2017-02-01T04:56:55.904Z,0
2017-02-01T04:57:55.494Z,0
2017-02-01T04:58:55.472Z,0
2017-02-01T04:59:55.842Z,0
2017-02-01T05:00:55.852Z,0
2017-02-01T05:01:55.796Z,0
2017-02-01T05:02:55.784Z,0
2017-02-01T05:03:55.754Z,0
2017-02-01T05:04:55.341Z,0
2017-02-01T05:05:55.324Z,0
2017-02-01T05:06:55.887Z,0
2017-02-01T05:07:55.691Z,0
2017-02-01T05:08:55.661Z,0
2017-02-01T05:09:55.665Z,0
2017-02-01T05:10:55.624Z,0
2017-02-01T05:11:55.614Z,0
2017-02-01T05:12:55.234Z,0
2017-02-01T05:13:55.553Z,0
2017-02-01T05:14:55.129Z,0
2017-02-01T05:15:55.507Z,0
2017-02-01T05:16:55.494Z,0
2017-02-01T05:17:55.470Z,0
2017-02-01T05:18:55.446Z,0
2017-02-01T05:19:55.421Z,0
2017-02-01T05:20:55.402Z,0
2017-02-01T05:21:54.990Z,0
2017-02-01T05:22:55.361Z,0
2017-02-01T05:23:54.951Z,0
2017-02-01T05:24:55.321Z,0
2017-02-01T05:25:55.298Z,0
2017-02-01T05:26:55.275Z,0
2017-02-01T05:27:55.270Z,0
2017-02-01T05:28:54.844Z,0
2017-02-01T05:29:55.220Z,0
2017-02-01T05:30:55.200Z,0
2017-02-01T05:31:55.207Z,0
2017-02-01T05:32:55.157Z,0
2017-02-01T05:33:55.138Z,0
2017-02-01T05:34:55.116Z,0
2017-02-01T05:35:55.098Z,0
2017-02-01T05:36:55.084Z,0
2017-02-01T05:37:55.049Z,0
2017-02-01T05:38:55.034Z,0
2017-02-01T05:39:55.014Z,0
2017-02-01T05:40:54.991Z,0
2017-02-01T05:41:54.975Z,0
2017-02-01T05:42:54.975Z,0
2017-02-01T05:43:54.935Z,0
2017-02-01T05:44:54.908Z,0
2017-02-01T05:45:54.901Z,0
2017-02-01T05:46:54.867Z,0
2017-02-01T05:47:54.861Z,0
2017-02-01T05:48:54.825Z,0
2017-02-01T05:49:54.803Z,0
2017-02-01T05:50:54.781Z,0
2017-02-01T05:51:54.783Z,0
2017-02-01T05:52:54.735Z,0
2017-02-01T05:53:54.718Z,0
2017-02-01T05:54:54.712Z,0
2017-02-01T05:55:54.297Z,0
2017-02-01T05:56:54.657Z,0
2017-02-01T05:57:54.248Z,0
2017-02-01T05:58:54.623Z,0
2017-02-01T05:59:54.592Z,0
2017-02-01T06:00:54.594Z,0
2017-02-01T06:01:54.583Z,0
2017-02-01T06:02:54.141Z,0
2017-02-01T06:03:54.513Z,0
2017-02-01T06:04:54.498Z,0
2017-02-01T06:05:54.472Z,0
2017-02-01T06:06:54.652Z,0
2017-02-01T06:07:54.428Z,0
2017-02-01T06:08:54.410Z,0
2017-02-01T06:09:54.390Z,0
2017-02-01T06:10:54.365Z,0
2017-02-01T06:11:54.347Z,0
2017-02-01T06:12:53.928Z,0
2017-02-01T06:13:54.304Z,0
2017-02-01T06:14:54.282Z,0
2017-02-01T06:15:54.257Z,0
2017-02-01T06:16:53.452Z,0
2017-02-01T06:17:54.218Z,0
2017-02-01T06:18:54.195Z,0
2017-02-01T06:19:54.181Z,0
2017-02-01T06:20:54.152Z,0
2017-02-01T06:21:54.131Z,0
2017-02-01T06:22:54.108Z,0
2017-02-01T06:23:54.093Z,0
2017-02-01T06:24:53.679Z,0
2017-02-01T06:25:53.678Z,0
2017-02-01T06:26:54.045Z,0
2017-02-01T06:27:54.023Z,0
2017-02-01T06:28:54.060Z,0
2017-02-01T06:29:53.986Z,0
2017-02-01T06:30:53.955Z,0
2017-02-01T06:31:54.014Z,0
2017-02-01T06:32:53.906Z,0
2017-02-01T06:33:53.890Z,0
2017-02-01T06:34:53.873Z,0
2017-02-01T06:35:53.852Z,0
2017-02-01T06:36:53.820Z,0
2017-02-01T06:37:53.809Z,0
2017-02-01T06:38:53.771Z,0
2017-02-01T06:39:53.750Z,0
2017-02-01T06:40:53.727Z,0
2017-02-01T06:41:53.714Z,0
2017-02-01T06:42:53.692Z,0
2017-02-01T06:43:53.674Z,0
2017-02-01T06:44:53.651Z,0
2017-02-01T06:45:53.663Z,0
2017-02-01T06:46:53.614Z,0
2017-02-01T06:47:53.632Z,0
2017-02-01T06:48:53.581Z,0
2017-02-01T06:49:53.541Z,0
2017-02-01T06:50:53.546Z,0
2017-02-01T06:51:53.505Z,0
2017-02-01T06:52:53.483Z,0
2017-02-01T06:53:53.487Z,0
2017-02-01T06:54:52.648Z,0
2017-02-01T06:55:53.420Z,0
2017-02-01T06:56:53.397Z,0
2017-02-01T06:57:53.375Z,0
2017-02-01T06:58:53.371Z,0
2017-02-01T06:59:52.939Z,0
2017-02-01T07:00:53.315Z,0
2017-02-01T07:01:53.293Z,0
2017-02-01T07:02:52.488Z,0
2017-02-01T07:03:53.248Z,0
2017-02-01T07:04:53.235Z,0
2017-02-01T07:05:52.819Z,0
2017-02-01T07:06:53.188Z,0
2017-02-01T07:07:53.171Z,0
2017-02-01T07:08:53.161Z,0
2017-02-01T07:09:53.128Z,0
2017-02-01T07:10:52.713Z,0
2017-02-01T07:11:52.290Z,0
2017-02-01T07:12:53.062Z,0
2017-02-01T07:13:53.044Z,0
2017-02-01T07:14:53.025Z,0
2017-02-01T07:15:53.007Z,0
2017-02-01T07:16:52.190Z,0
2017-02-01T07:17:52.960Z,5
2017-02-01T07:18:52.931Z,5
2017-02-01T07:19:52.521Z,5
2017-02-01T07:20:52.894Z,5
2017-02-01T07:21:52.878Z,5
2017-02-01T07:22:52.862Z,5
2017-02-01T07:23:52.840Z,5
2017-02-01T07:24:52.428Z,5
2017-02-01T07:25:52.804Z,5
2017-02-01T07:26:52.774Z,5
2017-02-01T07:27:52.748Z,5
2017-02-01T07:28:52.346Z,5
2017-02-01T07:29:52.734Z,10
2017-02-01T07:30:52.705Z,10
2017-02-01T07:31:52.675Z,10
2017-02-01T07:32:52.655Z,10
2017-02-01T07:33:52.235Z,10
2017-02-01T07:34:52.599Z,10
2017-02-01T07:35:52.597Z,10
2017-02-01T07:36:52.165Z,10
2017-02-01T07:37:52.559Z,10
2017-02-01T07:38:52.520Z,15
2017-02-01T07:39:52.499Z,15
2017-02-01T07:40:53.067Z,15
2017-02-01T07:41:52.453Z,15
2017-02-01T07:42:52.441Z,15
2017-02-01T07:43:52.543Z,15
2017-02-01T07:44:52.005Z,15
2017-02-01T07:45:52.006Z,15
2017-02-01T07:46:52.352Z,15
2017-02-01T07:47:52.325Z,15
2017-02-01T07:48:51.536Z,15
2017-02-01T07:49:51.894Z,20
2017-02-01T07:50:51.878Z,20
2017-02-01T07:51:52.257Z,20
2017-02-01T07:52:51.838Z,20
2017-02-01T07:53:52.206Z,20
2017-02-01T07:54:52.193Z,20
2017-02-01T07:55:52.169Z,20
2017-02-01T07:56:51.751Z,20
2017-02-01T07:57:52.126Z,20
2017-02-01T07:58:52.105Z,25
2017-02-01T07:59:52.078Z,25
2017-02-01T08:00:52.058Z,25
2017-02-01T08:01:51.644Z,25
2017-02-01T08:02:51.631Z,25
2017-02-01T08:03:52.021Z,25
2017-02-01T08:04:51.976Z,30
2017-02-01T08:05:51.958Z,30
2017-02-01T08:06:51.950Z,30
2017-02-01T08:07:52.118Z,30
2017-02-01T08:08:51.507Z,30
2017-02-01T08:09:51.877Z,35
2017-02-01T08:10:51.856Z,35
2017-02-01T08:11:51.841Z,35
2017-02-01T08:12:51.817Z,35
2017-02-01T08:13:51.799Z,35
2017-02-01T08:14:51.770Z,40
2017-02-01T08:15:51.756Z,40
2017-02-01T08:16:51.739Z,35
2017-02-01T08:17:51.714Z,40
2017-02-01T08:18:51.690Z,40
2017-02-01T08:19:51.696Z,45
2017-02-01T08:20:51.673Z,45
2017-02-01T08:21:51.627Z,45
2017-02-01T08:22:51.637Z,45
2017-02-01T08:23:51.584Z,50
2017-02-01T08:24:51.564Z,50
2017-02-01T08:25:51.542Z,50
2017-02-01T08:26:51.536Z,55
2017-02-01T08:27:51.105Z,55
2017-02-01T08:28:51.090Z,60
2017-02-01T08:29:51.465Z,60
2017-02-01T08:30:51.446Z,65
2017-02-01T08:31:51.026Z,75
2017-02-01T08:32:51.404Z,80
2017-02-01T08:33:51.390Z,75
2017-02-01T08:34:51.357Z,90
2017-02-01T08:35:51.363Z,90
2017-02-01T08:36:51.324Z,90
2017-02-01T08:37:51.304Z,90
2017-02-01T08:38:51.285Z,95
2017-02-01T08:39:51.259Z,90
2017-02-01T08:40:51.244Z,85
2017-02-01T08:41:51.215Z,100
2017-02-01T08:42:51.193Z,100
2017-02-01T08:43:51.178Z,90
2017-02-01T08:44:51.162Z,95
2017-02-01T08:45:51.149Z,95
2017-02-01T08:46:51.121Z,100
2017-02-01T08:47:51.097Z,90
2017-02-01T08:48:51.076Z,80
2017-02-01T08:49:51.064Z,80
2017-02-01T08:50:51.032Z,80
2017-02-01T08:51:51.013Z,80
2017-02-01T08:52:50.610Z,85
2017-02-01T08:53:50.974Z,90
2017-02-01T08:54:50.953Z,85
2017-02-01T08:55:50.997Z,90
2017-02-01T08:56:50.168Z,85
2017-02-01T08:57:50.914Z,85
2017-02-01T08:58:50.495Z,80
2017-02-01T08:59:50.862Z,75
2017-02-01T09:00:50.856Z,80
2017-02-01T09:01:50.440Z,85
2017-02-01T09:02:50.791Z,85
2017-02-01T09:03:50.772Z,85
2017-02-01T09:04:50.753Z,85
2017-02-01T09:05:50.733Z,90
2017-02-01T09:06:50.766Z,80
2017-02-01T09:07:50.689Z,85
2017-02-01T09:08:50.674Z,90
2017-02-01T09:09:50.259Z,85
2017-02-01T09:10:50.627Z,80
2017-02-01T09:11:50.618Z,85
2017-02-01T09:12:50.585Z,90
2017-02-01T09:13:50.571Z,95
2017-02-01T09:14:50.557Z,105
2017-02-01T09:15:50.533Z,105
2017-02-01T09:16:50.511Z,110
2017-02-01T09:17:50.493Z,105
2017-02-01T09:18:50.473Z,110
2017-02-01T09:19:50.447Z,115
2017-02-01T09:20:50.479Z,105
2017-02-01T09:21:50.403Z,100
2017-02-01T09:22:50.416Z,100
2017-02-01T09:23:50.369Z,105
2017-02-01T09:24:50.354Z,110
2017-02-01T09:25:49.938Z,115
2017-02-01T09:26:50.309Z,105
2017-02-01T09:27:50.289Z,110
2017-02-01T09:28:50.270Z,115
2017-02-01T09:29:50.268Z,110
2017-02-01T09:30:50.227Z,125
2017-02-01T09:31:49.818Z,125
2017-02-01T09:32:50.188Z,130
2017-02-01T09:33:50.172Z,130
2017-02-01T09:34:50.159Z,140
2017-02-01T09:35:50.128Z,145
2017-02-01T09:36:49.720Z,145
2017-02-01T09:37:50.091Z,150
2017-02-01T09:38:50.075Z,145
2017-02-01T09:39:50.062Z,150
2017-02-01T09:40:50.043Z,150
2017-02-01T09:41:50.016Z,150
2017-02-01T09:42:50.006Z,150
2017-02-01T09:43:49.995Z,145
2017-02-01T09:44:49.959Z,140
2017-02-01T09:45:49.968Z,145
2017-02-01T09:46:49.918Z,155
2017-02-01T09:47:49.896Z,170
2017-02-01T09:48:49.899Z,150
2017-02-01T09:49:49.866Z,145
2017-02-01T09:50:49.446Z,140
2017-02-01T09:51:49.429Z,140
2017-02-01T09:52:49.810Z,140
2017-02-01T09:53:49.792Z,135
2017-02-01T09:54:49.458Z,140
2017-02-01T09:55:49.747Z,150
2017-02-01T09:56:49.719Z,145
2017-02-01T09:57:49.306Z,150
2017-02-01T09:58:49.686Z,170
2017-02-01T09:59:49.271Z,175
2017-02-01T10:00:49.640Z,165
2017-02-01T10:01:49.624Z,170
2017-02-01T10:02:49.613Z,165
2017-02-01T10:03:49.590Z,165
2017-02-01T10:04:49.569Z,180
2017-02-01T10:05:49.551Z,185
2017-02-01T10:06:49.531Z,195
2017-02-01T10:07:49.713Z,185
2017-02-01T10:08:49.496Z,170
2017-02-01T10:09:49.478Z,175
2017-02-01T10:10:49.457Z,180
2017-02-01T10:11:49.047Z,185
2017-02-01T10:12:49.424Z,185
2017-02-01T10:13:49.422Z,185
2017-02-01T10:14:49.419Z,180
2017-02-01T10:15:48.988Z,170
2017-02-01T10:16:48.952Z,165
2017-02-01T10:17:48.534Z,175
2017-02-01T10:18:49.362Z,165
2017-02-01T10:19:49.289Z,155
2017-02-01T10:20:49.273Z,165
2017-02-01T10:21:49.245Z,180
2017-02-01T10:22:49.232Z,165
2017-02-01T10:23:48.854Z,160
2017-02-01T10:24:49.197Z,175
2017-02-01T10:25:49.187Z,185
2017-02-01T10:26:49.206Z,200
2017-02-01T10:27:49.149Z,195
2017-02-01T10:28:48.730Z,195
2017-02-01T10:29:49.104Z,195
2017-02-01T10:30:48.688Z,200
2017-02-01T10:31:48.671Z,210
2017-02-01T10:32:49.047Z,205
2017-02-01T10:33:48.234Z,215
2017-02-01T10:34:49.011Z,215
2017-02-01T10:35:48.988Z,215
2017-02-01T10:36:48.977Z,205
2017-02-01T10:37:48.961Z,200
2017-02-01T10:38:48.939Z,195
2017-02-01T10:39:48.916Z,195
2017-02-01T10:40:48.904Z,200
2017-02-01T10:41:48.483Z,205
2017-02-01T10:42:48.466Z,210
2017-02-01T10:43:48.848Z,215
2017-02-01T10:44:48.826Z,220
2017-02-01T10:45:48.809Z,230
2017-02-01T10:46:48.785Z,240
2017-02-01T10:47:48.766Z,235
2017-02-01T10:48:48.751Z,240
2017-02-01T10:49:48.748Z,220
2017-02-01T10:50:48.710Z,235
2017-02-01T10:51:48.706Z,260
2017-02-01T10:52:48.283Z,260
2017-02-01T10:53:48.662Z,265
2017-02-01T10:54:48.638Z,280
2017-02-01T10:55:48.229Z,285
2017-02-01T10:56:48.612Z,290
2017-02-01T10:57:48.601Z,285
2017-02-01T10:58:48.568Z,315
2017-02-01T10:59:48.556Z,340
2017-02-01T11:00:48.151Z,405
2017-02-01T11:01:48.519Z,415
2017-02-01T11:02:48.505Z,600
2017-02-01T11:03:48.480Z,605
2017-02-01T11:04:48.465Z,650
2017-02-01T11:05:48.444Z,615
2017-02-01T11:06:48.435Z,585
2017-02-01T11:07:48.427Z,455
2017-02-01T11:08:48.448Z,435
2017-02-01T11:09:48.387Z,450
2017-02-01T11:10:48.372Z,350
2017-02-01T11:11:48.362Z,375
2017-02-01T11:12:47.942Z,405
2017-02-01T11:13:48.325Z,260
2017-02-01T11:14:48.317Z,285
2017-02-01T11:15:47.897Z,410
2017-02-01T11:16:47.883Z,355
2017-02-01T11:17:48.260Z,290
2017-02-01T11:18:47.855Z,265
2017-02-01T11:19:48.246Z,350
2017-02-01T11:20:47.830Z,310
2017-02-01T11:21:48.204Z,520
2017-02-01T11:22:48.186Z,615
2017-02-01T11:23:48.175Z,405
2017-02-01T11:24:48.167Z,500
2017-02-01T11:25:48.146Z,455
2017-02-01T11:26:48.139Z,495
2017-02-01T11:27:47.724Z,515
2017-02-01T11:28:48.104Z,535
2017-02-01T11:29:47.697Z,620
2017-02-01T11:30:47.680Z,640
2017-02-01T11:31:48.094Z,600
2017-02-01T11:32:48.056Z,570
2017-02-01T11:33:48.096Z,545
2017-02-01T11:34:48.084Z,565
2017-02-01T11:35:47.626Z,415
2017-02-01T11:36:47.605Z,465
2017-02-01T11:37:47.985Z,560
2017-02-01T11:38:47.977Z,580
2017-02-01T11:39:47.971Z,630
2017-02-01T11:40:48.013Z,600
2017-02-01T11:41:47.945Z,635
2017-02-01T11:42:47.544Z,640
2017-02-01T11:43:47.518Z,685
2017-02-01T11:44:47.939Z,685
2017-02-01T11:45:47.889Z,690
2017-02-01T11:46:47.487Z,685
2017-02-01T11:47:47.474Z,595
2017-02-01T11:48:47.470Z,425
2017-02-01T11:49:47.452Z,285
2017-02-01T11:50:47.839Z,280
2017-02-01T11:51:47.616Z,260
2017-02-01T11:52:47.892Z,235
2017-02-01T11:53:47.463Z,230
2017-02-01T11:54:47.869Z,215
2017-02-01T11:55:47.872Z,220
2017-02-01T11:56:47.839Z,210
2017-02-01T11:57:47.044Z,220
2017-02-01T11:58:47.826Z,230
2017-02-01T11:59:47.790Z,240
2017-02-01T12:00:47.754Z,290
2017-02-01T12:01:47.711Z,345
2017-02-01T12:02:47.699Z,265
2017-02-01T12:03:47.700Z,220
2017-02-01T12:04:47.680Z,235
2017-02-01T12:05:47.265Z,275
2017-02-01T12:06:47.273Z,375
2017-02-01T12:07:47.477Z,590
2017-02-01T12:08:47.225Z,510
2017-02-01T12:09:47.614Z,375
2017-02-01T12:10:47.312Z,465
2017-02-01T12:11:47.265Z,605
2017-02-01T12:12:46.821Z,700
2017-02-01T12:13:46.763Z,760
2017-02-01T12:14:47.554Z,770
2017-02-01T12:15:47.538Z,760
2017-02-01T12:16:47.518Z,760
2017-02-01T12:17:47.517Z,770
2017-02-01T12:18:47.496Z,730
2017-02-01T12:19:47.490Z,740
2017-02-01T12:20:47.076Z,745
2017-02-01T12:21:47.065Z,755
2017-02-01T12:22:47.466Z,750
2017-02-01T12:23:47.447Z,750
2017-02-01T12:24:47.436Z,690
2017-02-01T12:25:47.429Z,750
2017-02-01T12:26:47.020Z,735
2017-02-01T12:27:47.409Z,745
2017-02-01T12:28:47.392Z,745
2017-02-01T12:29:47.381Z,745
2017-02-01T12:30:47.381Z,770
2017-02-01T12:31:47.370Z,725
2017-02-01T12:32:47.362Z,740
2017-02-01T12:33:47.361Z,775
2017-02-01T12:34:46.968Z,810
2017-02-01T12:35:47.347Z,800
2017-02-01T12:36:46.947Z,765
2017-02-01T12:37:47.336Z,725
2017-02-01T12:38:47.319Z,675
2017-02-01T12:39:46.915Z,650
2017-02-01T12:40:47.326Z,675
2017-02-01T12:41:46.906Z,695
2017-02-01T12:42:46.894Z,680
2017-02-01T12:43:46.987Z,670
2017-02-01T12:44:47.344Z,695
2017-02-01T12:45:46.901Z,715
2017-02-01T12:46:47.279Z,740
2017-02-01T12:47:47.260Z,705
2017-02-01T12:48:46.857Z,710
2017-02-01T12:49:46.457Z,715
2017-02-01T12:50:47.241Z,740
2017-02-01T12:51:47.238Z,735
2017-02-01T12:52:46.835Z,755
2017-02-01T12:53:47.234Z,765
2017-02-01T12:54:47.222Z,755
2017-02-01T12:55:47.209Z,750
2017-02-01T12:56:47.208Z,725
2017-02-01T12:57:47.202Z,720
2017-02-01T12:58:47.207Z,690
2017-02-01T12:59:47.194Z,675
2017-02-01T13:00:46.832Z,700
2017-02-01T13:01:46.786Z,705
2017-02-01T13:02:47.174Z,685
2017-02-01T13:03:46.774Z,655
2017-02-01T13:04:47.168Z,620
2017-02-01T13:05:47.162Z,640
2017-02-01T13:06:47.161Z,635
2017-02-01T13:07:47.158Z,625
2017-02-01T13:08:47.155Z,640
2017-02-01T13:09:47.150Z,610
2017-02-01T13:10:47.132Z,625
2017-02-01T13:11:46.736Z,605
2017-02-01T13:12:46.735Z,580
2017-02-01T13:13:47.157Z,550
2017-02-01T13:14:47.112Z,540
2017-02-01T13:15:46.769Z,575
2017-02-01T13:16:47.121Z,550
2017-02-01T13:17:47.107Z,525
2017-02-01T13:18:47.095Z,550
2017-02-01T13:19:47.093Z,525
2017-02-01T13:20:47.088Z,555
2017-02-01T13:21:47.081Z,560
2017-02-01T13:22:47.074Z,560
2017-02-01T13:23:47.069Z,565
2017-02-01T13:24:46.678Z,540
2017-02-01T13:25:47.062Z,530
2017-02-01T13:26:47.058Z,515
2017-02-01T13:27:47.053Z,505
2017-02-01T13:28:47.055Z,515
2017-02-01T13:29:47.049Z,540
2017-02-01T13:30:47.039Z,545
2017-02-01T13:31:46.643Z,535
2017-02-01T13:32:47.039Z,540
2017-02-01T13:33:47.028Z,555
2017-02-01T13:34:47.022Z,545
2017-02-01T13:35:47.055Z,500
2017-02-01T13:36:46.619Z,475
2017-02-01T13:37:46.650Z,480
2017-02-01T13:38:47.003Z,485
2017-02-01T13:39:47.004Z,470
2017-02-01T13:40:46.601Z,455
2017-02-01T13:41:46.993Z,455
2017-02-01T13:42:46.999Z,455
2017-02-01T13:43:46.991Z,455
2017-02-01T13:44:46.985Z,470
2017-02-01T13:45:46.979Z,480
2017-02-01T13:46:46.988Z,480
2017-02-01T13:47:46.975Z,475
2017-02-01T13:48:46.967Z,450
2017-02-01T13:49:46.969Z,415
2017-02-01T13:50:46.559Z,415
2017-02-01T13:51:46.951Z,450
2017-02-01T13:52:46.941Z,470
2017-02-01T13:53:46.948Z,465
2017-02-01T13:54:46.933Z,445
2017-02-01T13:55:46.565Z,435
2017-02-01T13:56:46.928Z,430
2017-02-01T13:57:46.926Z,435
2017-02-01T13:58:46.945Z,440
2017-02-01T13:59:46.915Z,430
2017-02-01T14:00:46.915Z,410
2017-02-01T14:01:46.523Z,410
2017-02-01T14:02:46.964Z,405
2017-02-01T14:03:46.966Z,385
2017-02-01T14:04:46.886Z,360
2017-02-01T14:05:46.877Z,305
2017-02-01T14:06:46.471Z,270
2017-02-01T14:07:47.079Z,255
2017-02-01T14:08:46.864Z,235
2017-02-01T14:09:46.857Z,225
2017-02-01T14:10:46.859Z,225
2017-02-01T14:11:46.841Z,230
2017-02-01T14:12:46.841Z,235
2017-02-01T14:13:46.441Z,240
2017-02-01T14:14:46.444Z,255
2017-02-01T14:15:46.826Z,245
2017-02-01T14:16:46.823Z,235
2017-02-01T14:17:46.811Z,225
2017-02-01T14:18:46.795Z,230
2017-02-01T14:19:46.814Z,225